Time;durP1;ratioP1;P1;durP2;ratioP2;P2;SDS_P1;SDS_P2;PMS_P1;PMS_P2;Temp;Humidity;BMP_temperature;BMP_pressure;BME280_temperature;BME280_humidity;BME280_pressure;Samples;Min_cycle;Max_cycle;Signal;HPM_P1;HPM_P2
2023/06/11 00:00:56;;;;;;;;;;;18.70;91.90;;;;;;5064197;28;19970;-83
2023/06/11 00:03:22;;;;;;;;;;;18.70;92.00;;;;;;5063815;28;19909;-83
2023/06/11 00:05:48;;;;;;;;;;;18.70;92.10;;;;;;5063746;28;19908;-85
2023/06/11 00:08:13;;;;;;;;;;;18.70;92.20;;;;;;5063984;28;19969;-84
2023/06/11 00:10:39;;;;;;;;;;;18.70;92.40;;;;;;5064018;28;19912;-84
2023/06/11 00:13:04;;;;;;;;;;;18.70;92.50;;;;;;5061163;28;19962;-84
2023/06/11 00:15:30;;;;;;;;;;;18.60;92.60;;;;;;5058915;28;19912;-85
2023/06/11 00:17:56;;;;;;;;;;;18.60;92.80;;;;;;5060468;28;19908;-85
2023/06/11 00:20:22;;;;;;;;;;;18.60;92.80;;;;;;5061145;28;19965;-86
2023/06/11 00:22:48;;;;;;;;;;;18.60;93.00;;;;;;5062500;28;19908;-83
2023/06/11 00:25:13;;;;;;;;;;;18.60;93.00;;;;;;5061581;28;19920;-84
2023/06/11 00:27:39;;;;;;;;;;;18.60;93.00;;;;;;5044425;28;19912;-82
2023/06/11 00:30:06;;;;;;;;;;;18.60;93.10;;;;;;5059333;28;19920;-84
2023/06/11 00:32:33;;;;;;;;;;;18.60;93.10;;;;;;5049385;28;19913;-82
2023/06/11 00:34:59;;;;;;;;;;;18.50;93.30;;;;;;5057212;28;19975;-83
2023/06/11 00:37:25;;;;;;;;;;;18.50;93.50;;;;;;5051419;28;20381;-84
2023/06/11 00:39:51;;;;;;;;;;;18.50;93.50;;;;;;5061713;28;19912;-83
2023/06/11 00:42:19;;;;;;;;;;;18.50;93.70;;;;;;5051182;28;20446;-84
2023/06/11 00:44:45;;;;;;;;;;;18.50;93.80;;;;;;5061740;28;19994;-84
2023/06/11 00:47:10;;;;;;;;;;;18.40;94.00;;;;;;5055140;28;20434;-84
2023/06/11 00:49:36;;;;;;;;;;;18.30;94.20;;;;;;5054276;28;19920;-82
2023/06/11 00:52:02;;;;;;;;;;;18.20;94.50;;;;;;5062061;28;19912;-87
2023/06/11 00:54:28;;;;;;;;;;;18.20;94.70;;;;;;5060751;28;19912;-88
2023/06/11 00:56:54;;;;;;;;;;;18.20;94.70;;;;;;5060100;28;19918;-82
2023/06/11 00:59:20;;;;;;;;;;;18.30;94.80;;;;;;5056377;28;19912;-84
2023/06/11 01:01:56;;;;;;;;;;;18.30;94.90;;;;;;5062962;28;19913;-84
2023/06/11 01:04:23;;;;;;;;;;;18.20;95.00;;;;;;5062423;28;19912;-85
2023/06/11 01:06:52;;;;;;;;;;;17.90;95.60;;;;;;5061266;28;19912;-85
2023/06/11 01:09:22;;;;;;;;;;;18.00;95.70;;;;;;5048352;28;20487;-84
2023/06/11 01:11:53;;;;;;;;;;;18.00;95.60;;;;;;5063056;28;19915;-87
2023/06/11 01:14:20;;;;;;;;;;;18.00;95.50;;;;;;5056350;28;19908;-88
2023/06/11 01:16:45;;;;;;;;;;;18.00;95.50;;;;;;5063630;28;19965;-83
2023/06/11 01:19:30;;;;;;;;;;;17.90;95.60;;;;;;5046840;28;19912;-82
2023/06/11 01:22:00;;;;;;;;;;;17.90;95.90;;;;;;5046995;28;19913;-82
2023/06/11 01:24:40;;;;;;;;;;;17.90;95.90;;;;;;5047122;28;19966;-83
2023/06/11 01:27:18;;;;;;;;;;;17.90;96.00;;;;;;5059613;28;19908;-83
2023/06/11 01:29:45;;;;;;;;;;;17.90;96.00;;;;;;5048459;28;19931;-82
2023/06/11 01:32:11;;;;;;;;;;;17.90;95.90;;;;;;5052656;28;19962;-82
2023/06/11 01:34:41;;;;;;;;;;;17.90;95.90;;;;;;5047917;28;19909;-83
2023/06/11 01:37:09;;;;;;;;;;;17.90;95.80;;;;;;5049354;28;19912;-85
2023/06/11 01:39:34;;;;;;;;;;;17.90;95.70;;;;;;5050475;28;20679;-83
2023/06/11 01:42:00;;;;;;;;;;;18.00;95.60;;;;;;5048834;28;19919;-83
2023/06/11 01:44:26;;;;;;;;;;;18.00;95.60;;;;;;5052710;28;20022;-82
2023/06/11 01:46:52;;;;;;;;;;;18.00;95.60;;;;;;5047111;28;19921;-83
2023/06/11 01:49:17;;;;;;;;;;;18.00;95.70;;;;;;5043901;28;19920;-83
2023/06/11 01:51:43;;;;;;;;;;;18.00;95.80;;;;;;5038412;28;19985;-82
2023/06/11 01:54:09;;;;;;;;;;;17.90;95.90;;;;;;5043998;28;19920;-83
2023/06/11 01:56:35;;;;;;;;;;;17.70;96.20;;;;;;5052589;28;19912;-84
2023/06/11 01:59:00;;;;;;;;;;;17.60;96.70;;;;;;5062598;28;19920;-83
2023/06/11 02:01:28;;;;;;;;;;;17.60;96.90;;;;;;5056105;28;19912;-85
2023/06/11 02:03:54;;;;;;;;;;;17.60;96.90;;;;;;5062145;28;19908;-84
2023/06/11 02:06:20;;;;;;;;;;;17.60;96.90;;;;;;5056672;28;19912;-83
2023/06/11 02:08:45;;;;;;;;;;;17.60;97.00;;;;;;5044967;28;20045;-85
2023/06/11 02:11:11;;;;;;;;;;;17.50;97.10;;;;;;5053544;28;20023;-83
2023/06/11 02:13:37;;;;;;;;;;;17.50;97.30;;;;;;5046197;28;19913;-84
2023/06/11 02:16:02;;;;;;;;;;;17.50;97.50;;;;;;5045462;28;19924;-83
2023/06/11 02:18:28;;;;;;;;;;;17.50;97.60;;;;;;5050097;28;20796;-82
2023/06/11 02:20:53;;;;;;;;;;;17.40;97.70;;;;;;5055414;28;19908;-83
2023/06/11 02:23:19;;;;;;;;;;;17.40;98.10;;;;;;5054249;28;19978;-82
2023/06/11 02:25:45;;;;;;;;;;;17.40;98.20;;;;;;5063516;28;19927;-83
2023/06/11 02:28:10;;;;;;;;;;;17.40;98.60;;;;;;5053248;28;19978;-85
2023/06/11 02:30:36;;;;;;;;;;;17.40;98.80;;;;;;5052697;28;19919;-84
2023/06/11 02:33:01;;;;;;;;;;;17.30;99.10;;;;;;5054884;28;20531;-85
2023/06/11 02:35:27;;;;;;;;;;;17.30;99.20;;;;;;5055832;28;20468;-85
2023/06/11 02:37:52;;;;;;;;;;;17.30;99.20;;;;;;5055156;28;19917;-84
2023/06/11 02:40:18;;;;;;;;;;;17.30;99.30;;;;;;5058941;28;19944;-85
2023/06/11 02:42:44;;;;;;;;;;;17.30;99.40;;;;;;5054360;28;20593;-85
2023/06/11 02:45:09;;;;;;;;;;;17.30;99.60;;;;;;5051009;28;19993;-85
2023/06/11 02:47:35;;;;;;;;;;;17.20;99.70;;;;;;5057210;28;20061;-84
2023/06/11 02:50:01;;;;;;;;;;;17.30;99.90;;;;;;5059387;28;20025;-84
2023/06/11 02:52:26;;;;;;;;;;;17.30;99.90;;;;;;5047585;28;20489;-86
2023/06/11 02:54:52;;;;;;;;;;;17.20;99.90;;;;;;5051406;28;19916;-84
2023/06/11 02:57:17;;;;;;;;;;;17.20;99.90;;;;;;5060210;28;20007;-86
2023/06/11 02:59:43;;;;;;;;;;;17.30;99.90;;;;;;5063545;28;20394;-86
2023/06/11 03:02:08;;;;;;;;;;;17.20;99.90;;;;;;5061667;28;20299;-86
2023/06/11 03:04:34;;;;;;;;;;;17.20;99.90;;;;;;5053720;28;20007;-84
2023/06/11 03:07:00;;;;;;;;;;;17.20;99.90;;;;;;5065284;28;19973;-84
2023/06/11 03:09:25;;;;;;;;;;;17.10;99.90;;;;;;5064963;28;20359;-83
2023/06/11 03:11:51;;;;;;;;;;;17.00;99.90;;;;;;5052571;28;20006;-84
2023/06/11 03:14:17;;;;;;;;;;;17.00;99.90;;;;;;5060484;28;20294;-86
2023/06/11 03:16:42;;;;;;;;;;;16.90;99.90;;;;;;5063642;28;19920;-85
2023/06/11 03:19:08;;;;;;;;;;;17.00;99.90;;;;;;5060162;28;19985;-84
2023/06/11 03:21:33;;;;;;;;;;;17.00;99.90;;;;;;5063127;28;19919;-84
2023/06/11 03:23:59;;;;;;;;;;;16.90;99.90;;;;;;5065233;28;19920;-81
2023/06/11 03:26:25;;;;;;;;;;;16.90;99.90;;;;;;5059840;28;19916;-84
2023/06/11 03:28:51;;;;;;;;;;;16.90;99.90;;;;;;5058090;28;19920;-81
2023/06/11 03:31:16;;;;;;;;;;;16.90;99.90;;;;;;5048807;28;19917;-85
2023/06/11 03:33:42;;;;;;;;;;;16.90;99.90;;;;;;5061655;28;19995;-80
2023/06/11 03:36:07;;;;;;;;;;;16.80;99.90;;;;;;5055210;28;20364;-80
2023/06/11 03:38:33;;;;;;;;;;;16.70;99.90;;;;;;5054545;28;19939;-79
2023/06/11 03:40:58;;;;;;;;;;;16.70;99.90;;;;;;5060189;28;19908;-81
2023/06/11 03:43:24;;;;;;;;;;;16.60;99.90;;;;;;5056702;28;20716;-81
2023/06/11 03:45:49;;;;;;;;;;;16.60;99.90;;;;;;5063622;28;19914;-80
2023/06/11 03:48:15;;;;;;;;;;;16.60;99.90;;;;;;5066306;28;19919;-76
2023/06/11 03:50:41;;;;;;;;;;;16.60;99.90;;;;;;5061031;28;20370;-75
2023/06/11 03:53:06;;;;;;;;;;;16.60;99.90;;;;;;5034320;28;20007;-75
2023/06/11 03:55:32;;;;;;;;;;;16.60;99.90;;;;;;5061861;28;19912;-75
2023/06/11 03:57:57;;;;;;;;;;;16.70;99.90;;;;;;5064469;28;19908;-75
2023/06/11 04:00:23;;;;;;;;;;;16.70;99.90;;;;;;5057303;28;19927;-76
2023/06/11 04:02:48;;;;;;;;;;;16.70;99.90;;;;;;5046004;28;19909;-76
2023/06/11 04:05:14;;;;;;;;;;;16.70;99.90;;;;;;5064392;28;19913;-77
2023/06/11 04:07:40;;;;;;;;;;;16.70;99.90;;;;;;5064179;28;19912;-77
2023/06/11 04:10:06;;;;;;;;;;;16.60;99.90;;;;;;5063037;28;19930;-76
2023/06/11 04:12:32;;;;;;;;;;;16.50;99.90;;;;;;5052980;28;19909;-76
2023/06/11 04:14:57;;;;;;;;;;;16.60;99.90;;;;;;5063647;28;19955;-76
2023/06/11 04:17:23;;;;;;;;;;;16.70;99.90;;;;;;5054970;28;19951;-77
2023/06/11 04:19:48;;;;;;;;;;;16.60;99.90;;;;;;5064143;28;19915;-76
2023/06/11 04:22:14;;;;;;;;;;;16.60;99.90;;;;;;5052982;28;19924;-78
2023/06/11 04:24:39;;;;;;;;;;;16.60;99.90;;;;;;5063811;28;19920;-76
2023/06/11 04:27:06;;;;;;;;;;;16.60;99.90;;;;;;5063645;28;20007;-80
2023/06/11 04:29:33;;;;;;;;;;;16.60;99.90;;;;;;5058655;28;19935;-79
2023/06/11 04:32:01;;;;;;;;;;;16.40;99.90;;;;;;5061649;28;20359;-76
2023/06/11 04:34:29;;;;;;;;;;;16.40;99.90;;;;;;5063706;28;19908;-79
2023/06/11 04:36:57;;;;;;;;;;;16.30;99.90;;;;;;5063198;28;19916;-79
2023/06/11 04:39:23;;;;;;;;;;;16.30;99.90;;;;;;5058914;28;19916;-77
2023/06/11 04:41:51;;;;;;;;;;;16.50;99.90;;;;;;5057283;28;19986;-76
2023/06/11 04:44:18;;;;;;;;;;;16.90;99.90;;;;;;5050584;28;19916;-80
2023/06/11 04:46:43;;;;;;;;;;;16.70;99.90;;;;;;5053234;28;19908;-80
2023/06/11 04:49:09;;;;;;;;;;;16.60;99.90;;;;;;5062468;28;19917;-84
2023/06/11 04:51:40;;;;;;;;;;;16.50;99.90;;;;;;5057134;28;19927;-81
2023/06/11 04:54:07;;;;;;;;;;;16.50;99.90;;;;;;5061354;28;19911;-80
2023/06/11 04:56:35;;;;;;;;;;;16.50;99.90;;;;;;5063480;28;19954;-81
2023/06/11 04:59:01;;;;;;;;;;;16.60;99.90;;;;;;5059967;28;19919;-81
2023/06/11 05:01:30;;;;;;;;;;;16.70;99.90;;;;;;5053810;28;19912;-81
2023/06/11 05:03:56;;;;;;;;;;;17.60;99.90;;;;;;5052749;28;19913;-81
2023/06/11 05:06:23;;;;;;;;;;;19.40;98.70;;;;;;5061301;28;19919;-82
2023/06/11 05:08:49;;;;;;;;;;;20.50;94.70;;;;;;5050152;28;19938;-83
2023/06/11 05:11:14;;;;;;;;;;;21.20;92.40;;;;;;5061332;28;19916;-82
2023/06/11 05:13:40;;;;;;;;;;;20.90;92.20;;;;;;5062376;28;19915;-83
2023/06/11 05:16:05;;;;;;;;;;;21.10;91.80;;;;;;5061625;28;19920;-82
2023/06/11 05:18:31;;;;;;;;;;;21.30;91.40;;;;;;5062662;28;19916;-81
2023/06/11 05:20:57;;;;;;;;;;;21.60;91.00;;;;;;5056654;28;20587;-81
2023/06/11 05:23:28;;;;;;;;;;;22.10;89.50;;;;;;5062919;28;19981;-81
2023/06/11 05:25:58;;;;;;;;;;;22.80;86.30;;;;;;5044032;28;19966;-81
2023/06/11 05:28:24;;;;;;;;;;;23.30;83.50;;;;;;5062105;28;19919;-81
2023/06/11 05:30:50;;;;;;;;;;;23.50;81.60;;;;;;5062651;28;19908;-81
2023/06/11 05:33:16;;;;;;;;;;;24.00;80.40;;;;;;5062690;28;20656;-81
2023/06/11 05:35:42;;;;;;;;;;;24.20;78.50;;;;;;5062266;28;20406;-81
2023/06/11 05:38:09;;;;;;;;;;;22.90;82.60;;;;;;5048995;28;19908;-81
2023/06/11 05:40:36;;;;;;;;;;;24.10;79.70;;;;;;5059881;28;19940;-81
2023/06/11 05:43:05;;;;;;;;;;;23.90;79.60;;;;;;5056369;28;19908;-81
2023/06/11 05:45:31;;;;;;;;;;;24.40;77.50;;;;;;5062406;28;20445;-81
2023/06/11 05:47:57;;;;;;;;;;;24.90;75.10;;;;;;5036521;28;20519;-81
2023/06/11 05:50:23;;;;;;;;;;;23.80;78.50;;;;;;5062291;28;19926;-81
2023/06/11 05:52:48;;;;;;;;;;;23.60;78.60;;;;;;5061990;28;19908;-81
2023/06/11 05:55:14;;;;;;;;;;;24.10;77.20;;;;;;5061843;28;19912;-80
2023/06/11 05:57:39;;;;;;;;;;;23.40;77.90;;;;;;5061820;28;19961;-81
2023/06/11 06:00:07;;;;;;;;;;;24.00;76.20;;;;;;5061741;28;19914;-81
2023/06/11 06:02:32;;;;;;;;;;;25.40;73.70;;;;;;5062063;28;19909;-81
2023/06/11 06:04:58;;;;;;;;;;;25.90;70.90;;;;;;5043623;28;19915;-81
2023/06/11 06:07:23;;;;;;;;;;;26.90;69.70;;;;;;5062434;28;19909;-81
2023/06/11 06:09:49;;;;;;;;;;;27.40;66.40;;;;;;5061820;28;19997;-81
2023/06/11 06:12:15;;;;;;;;;;;27.40;67.00;;;;;;5061635;28;20097;-81
2023/06/11 06:14:41;;;;;;;;;;;27.40;66.10;;;;;;5062254;28;19904;-82
2023/06/11 06:17:06;;;;;;;;;;;27.20;65.50;;;;;;5059867;28;19908;-80
2023/06/11 06:19:32;;;;;;;;;;;27.30;66.60;;;;;;5064913;28;19912;-81
2023/06/11 06:21:57;;;;;;;;;;;27.40;65.80;;;;;;5065457;28;19959;-81
2023/06/11 06:24:23;;;;;;;;;;;27.10;66.50;;;;;;5065757;28;20410;-81
2023/06/11 06:26:56;;;;;;;;;;;27.30;65.50;;;;;;5065753;28;19998;-81
2023/06/11 06:29:27;;;;;;;;;;;28.00;63.40;;;;;;5065681;28;20516;-81
2023/06/11 06:31:53;;;;;;;;;;;28.00;63.50;;;;;;5065977;28;19912;-81
2023/06/11 06:34:18;;;;;;;;;;;28.20;62.50;;;;;;5066071;28;20390;-82
2023/06/11 06:36:45;;;;;;;;;;;28.30;62.90;;;;;;5065850;28;19948;-82
2023/06/11 06:39:10;;;;;;;;;;;29.30;60.50;;;;;;5065669;28;20346;-81
2023/06/11 06:41:36;;;;;;;;;;;28.60;61.50;;;;;;5065670;28;19915;-81
2023/06/11 06:44:01;;;;;;;;;;;28.60;59.10;;;;;;5065895;28;19908;-81
2023/06/11 06:46:27;;;;;;;;;;;29.20;60.30;;;;;;5065617;28;19915;-82
2023/06/11 06:48:53;;;;;;;;;;;29.40;57.30;;;;;;5059854;28;19927;-81
2023/06/11 06:51:20;;;;;;;;;;;30.90;56.70;;;;;;5065598;28;19915;-82
2023/06/11 06:53:47;;;;;;;;;;;30.60;56.40;;;;;;5065487;28;19915;-79
2023/06/11 06:56:13;;;;;;;;;;;30.80;55.20;;;;;;5065067;28;19915;-78
2023/06/11 06:58:39;;;;;;;;;;;31.20;55.50;;;;;;5064822;28;20645;-79
2023/06/11 07:01:04;;;;;;;;;;;31.20;55.20;;;;;;5056806;28;19962;-79
2023/06/11 07:03:30;;;;;;;;;;;31.30;54.70;;;;;;5047793;28;19904;-79
2023/06/11 07:05:55;;;;;;;;;;;31.90;53.50;;;;;;5046736;28;20017;-80
2023/06/11 07:08:21;;;;;;;;;;;32.30;53.10;;;;;;5048578;28;19951;-79
2023/06/11 07:10:50;;;;;;;;;;;32.90;52.00;;;;;;5048135;28;19998;-79
2023/06/11 07:13:16;;;;;;;;;;;33.00;52.10;;;;;;5050633;28;20023;-79
2023/06/11 07:15:42;;;;;;;;;;;33.10;49.20;;;;;;5058218;28;20000;-78
2023/06/11 07:18:08;;;;;;;;;;;33.30;49.10;;;;;;5051971;28;19915;-79
2023/06/11 07:20:34;;;;;;;;;;;33.40;48.80;;;;;;5031159;28;19982;-79
2023/06/11 07:22:59;;;;;;;;;;;33.90;48.70;;;;;;5052565;28;19912;-79
2023/06/11 07:25:28;;;;;;;;;;;34.50;47.90;;;;;;5049266;28;19947;-79
2023/06/11 07:28:02;;;;;;;;;;;34.50;48.80;;;;;;5058083;28;19915;-80
2023/06/11 07:30:28;;;;;;;;;;;34.90;46.90;;;;;;5051028;28;19963;-79
2023/06/11 07:32:54;;;;;;;;;;;34.90;46.30;;;;;;5060220;28;20816;-80
2023/06/11 07:35:20;;;;;;;;;;;35.60;46.70;;;;;;5050238;28;19909;-79
2023/06/11 07:37:46;;;;;;;;;;;35.30;45.40;;;;;;5061988;28;19904;-80
2023/06/11 07:40:12;;;;;;;;;;;35.70;45.40;;;;;;5057190;28;19997;-80
2023/06/11 07:42:38;;;;;;;;;;;35.30;45.70;;;;;;5064604;28;19908;-79
2023/06/11 07:45:04;;;;;;;;;;;35.00;45.70;;;;;;5064224;28;19924;-80
2023/06/11 07:47:29;;;;;;;;;;;36.00;45.70;;;;;;5059042;28;20736;-80
2023/06/11 07:49:55;;;;;;;;;;;36.30;44.60;;;;;;5061092;28;19923;-79
2023/06/11 07:52:20;;;;;;;;;;;36.90;44.40;;;;;;5064186;28;19916;-79
2023/06/11 07:54:46;;;;;;;;;;;37.10;44.40;;;;;;5063738;28;19919;-79
2023/06/11 07:57:12;;;;;;;;;;;37.50;43.10;;;;;;5064011;28;19912;-80
2023/06/11 07:59:40;;;;;;;;;;;38.10;41.30;;;;;;5063827;28;20411;-80
2023/06/11 08:02:07;;;;;;;;;;;37.60;42.80;;;;;;5047070;28;19931;-79
2023/06/11 08:04:33;;;;;;;;;;;36.90;43.80;;;;;;5044858;28;19909;-80
2023/06/11 08:06:58;;;;;;;;;;;36.50;43.50;;;;;;5046231;28;20433;-79
2023/06/11 08:09:24;;;;;;;;;;;37.90;42.90;;;;;;5045377;28;20034;-80
2023/06/11 08:11:49;;;;;;;;;;;38.20;42.50;;;;;;5059234;28;19916;-79
2023/06/11 08:14:18;;;;;;;;;;;38.40;41.70;;;;;;5049303;28;19908;-79
2023/06/11 08:16:45;;;;;;;;;;;38.30;41.80;;;;;;5053156;28;20000;-80
2023/06/11 08:19:11;;;;;;;;;;;38.60;41.50;;;;;;5043992;28;19927;-80
2023/06/11 08:21:37;;;;;;;;;;;38.60;42.50;;;;;;5053532;28;19908;-79
2023/06/11 08:24:03;;;;;;;;;;;39.70;41.60;;;;;;5055573;28;20334;-80
2023/06/11 08:26:28;;;;;;;;;;;39.40;40.80;;;;;;5051825;28;19937;-79
2023/06/11 08:28:54;;;;;;;;;;;39.00;38.70;;;;;;5047843;28;19923;-80
2023/06/11 08:31:20;;;;;;;;;;;39.50;40.10;;;;;;5052641;28;20454;-79
2023/06/11 08:33:45;;;;;;;;;;;40.20;39.70;;;;;;5048951;28;19951;-79
2023/06/11 08:36:11;;;;;;;;;;;40.60;39.60;;;;;;5053952;28;19908;-80
2023/06/11 08:38:36;;;;;;;;;;;40.70;40.20;;;;;;5049857;28;19908;-79
2023/06/11 08:41:02;;;;;;;;;;;40.80;39.60;;;;;;5053911;28;19968;-80
2023/06/11 08:43:27;;;;;;;;;;;40.40;40.20;;;;;;5055554;28;20371;-80
2023/06/11 08:45:53;;;;;;;;;;;40.20;40.20;;;;;;5056341;28;20001;-80
2023/06/11 08:48:20;;;;;;;;;;;40.10;40.40;;;;;;5056441;28;19998;-80
2023/06/11 08:50:46;;;;;;;;;;;40.20;39.40;;;;;;5052043;28;19919;-79
2023/06/11 08:53:12;;;;;;;;;;;41.20;38.90;;;;;;5051604;28;19934;-80
2023/06/11 08:55:38;;;;;;;;;;;41.70;37.70;;;;;;5055923;28;19916;-80
2023/06/11 08:58:03;;;;;;;;;;;41.90;37.30;;;;;;5055128;28;19920;-80
2023/06/11 09:00:29;;;;;;;;;;;41.60;38.30;;;;;;5056729;28;20011;-80
2023/06/11 09:02:54;;;;;;;;;;;42.00;37.80;;;;;;5054525;28;20121;-80
2023/06/11 09:05:21;;;;;;;;;;;42.60;38.70;;;;;;5046592;28;19908;-80
2023/06/11 09:07:47;;;;;;;;;;;41.10;38.30;;;;;;5045196;28;19987;-80
2023/06/11 09:10:13;;;;;;;;;;;41.50;36.70;;;;;;5046698;28;19965;-79
2023/06/11 09:12:38;;;;;;;;;;;42.10;37.50;;;;;;5045242;28;20625;-81
2023/06/11 09:15:04;;;;;;;;;;;41.60;37.40;;;;;;5052646;28;19915;-80
2023/06/11 09:17:36;;;;;;;;;;;43.00;37.30;;;;;;5045992;28;20231;-80
2023/06/11 09:20:04;;;;;;;;;;;42.00;37.20;;;;;;5049843;28;20003;-80
2023/06/11 09:22:30;;;;;;;;;;;40.00;38.20;;;;;;5046805;28;20003;-80
2023/06/11 09:24:55;;;;;;;;;;;39.30;40.80;;;;;;5051190;28;19927;-79
2023/06/11 09:27:22;;;;;;;;;;;38.70;39.10;;;;;;5047070;28;20435;-80
2023/06/11 09:29:47;;;;;;;;;;;38.70;40.30;;;;;;5052163;28;19916;-79
2023/06/11 09:32:13;;;;;;;;;;;39.50;39.00;;;;;;5047388;28;19916;-80
2023/06/11 09:34:40;;;;;;;;;;;38.70;39.20;;;;;;5052418;28;19908;-80
2023/06/11 09:37:11;;;;;;;;;;;41.30;38.70;;;;;;5043979;28;19931;-80
2023/06/11 09:39:39;;;;;;;;;;;43.00;36.60;;;;;;5054044;28;20449;-80
2023/06/11 09:42:05;;;;;;;;;;;43.70;36.20;;;;;;5049010;28;19944;-81
2023/06/11 09:44:31;;;;;;;;;;;43.10;36.30;;;;;;5055261;28;19994;-79
2023/06/11 09:46:57;;;;;;;;;;;43.50;36.70;;;;;;5055035;28;20445;-80
2023/06/11 09:49:23;;;;;;;;;;;43.50;34.90;;;;;;5049953;28;19920;-81
2023/06/11 09:51:51;;;;;;;;;;;44.00;37.40;;;;;;5056244;28;19909;-81
2023/06/11 09:54:17;;;;;;;;;;;45.10;36.10;;;;;;5056495;28;19909;-79
2023/06/11 09:56:43;;;;;;;;;;;45.00;36.90;;;;;;5052433;28;19955;-80
2023/06/11 09:59:10;;;;;;;;;;;45.40;36.50;;;;;;5058409;28;20262;-80
2023/06/11 10:01:35;;;;;;;;;;;44.30;35.50;;;;;;5048997;28;19909;-80
2023/06/11 10:04:01;;;;;;;;;;;42.20;35.30;;;;;;5056079;28;19915;-79
2023/06/11 10:06:32;;;;;;;;;;;36.90;41.80;;;;;;5026584;28;20685;-80
2023/06/11 10:09:00;;;;;;;;;;;35.40;45.00;;;;;;5049720;28;20341;-80
2023/06/11 10:11:28;;;;;;;;;;;34.60;46.90;;;;;;5062779;28;19908;-79
2023/06/11 10:14:00;;;;;;;;;;;34.80;47.00;;;;;;5062223;28;19913;-79
2023/06/11 10:16:26;;;;;;;;;;;35.00;46.80;;;;;;5056474;28;20438;-79
2023/06/11 10:18:52;;;;;;;;;;;36.30;45.00;;;;;;5043963;28;20590;-80
2023/06/11 10:21:18;;;;;;;;;;;35.70;43.60;;;;;;5061736;28;19908;-80
2023/06/11 10:23:50;;;;;;;;;;;37.00;45.80;;;;;;5059316;28;20438;-80
2023/06/11 10:26:16;;;;;;;;;;;39.70;39.10;;;;;;5062093;28;19908;-80
2023/06/11 10:28:48;;;;;;;;;;;41.10;39.40;;;;;;5061525;28;20704;-79
2023/06/11 10:31:27;;;;;;;;;;;41.40;37.70;;;;;;5061449;28;20334;-80
2023/06/11 10:33:59;;;;;;;;;;;41.60;38.30;;;;;;5062500;28;19981;-79
2023/06/11 10:36:25;;;;;;;;;;;37.50;38.80;;;;;;5061552;28;19962;-80
2023/06/11 10:38:51;;;;;;;;;;;34.70;43.40;;;;;;5061933;28;19915;-80
2023/06/11 10:41:27;;;;;;;;;;;33.20;46.70;;;;;;5055918;28;19916;-79
2023/06/11 10:43:55;;;;;;;;;;;32.80;48.50;;;;;;5059730;28;19909;-79
2023/06/11 10:46:20;;;;;;;;;;;32.50;47.20;;;;;;5057548;28;19916;-80
2023/06/11 10:48:50;;;;;;;;;;;32.20;47.60;;;;;;5036741;28;20535;-81
2023/06/11 10:51:16;;;;;;;;;;;32.10;47.80;;;;;;5061370;28;19972;-78
2023/06/11 10:53:42;;;;;;;;;;;32.10;48.30;;;;;;5061938;28;20384;-80
2023/06/11 10:56:08;;;;;;;;;;;32.10;46.90;;;;;;5061702;28;19915;-80
2023/06/11 10:58:34;;;;;;;;;;;32.10;47.20;;;;;;5061180;28;19913;-79
2023/06/11 11:01:00;;;;;;;;;;;31.90;47.80;;;;;;5053938;28;19909;-80
2023/06/11 11:03:29;;;;;;;;;;;31.40;49.20;;;;;;5025363;28;19912;-80
2023/06/11 11:05:56;;;;;;;;;;;31.60;49.00;;;;;;5044627;28;19909;-80
2023/06/11 11:08:21;;;;;;;;;;;32.10;46.60;;;;;;5048630;28;20347;-79
2023/06/11 11:10:52;;;;;;;;;;;32.60;45.60;;;;;;5047307;28;19909;-79
2023/06/11 11:13:17;;;;;;;;;;;32.50;46.40;;;;;;5060587;28;19995;-80
2023/06/11 11:15:44;;;;;;;;;;;32.40;46.70;;;;;;5051748;28;19918;-80
2023/06/11 11:18:10;;;;;;;;;;;31.90;49.60;;;;;;5050137;28;19908;-80
2023/06/11 11:20:35;;;;;;;;;;;31.70;50.60;;;;;;5048069;28;19959;-80
2023/06/11 11:23:02;;;;;;;;;;;31.80;52.70;;;;;;5050990;28;19908;-80
2023/06/11 11:25:29;;;;;;;;;;;32.50;53.50;;;;;;5048271;28;19920;-80
2023/06/11 11:27:55;;;;;;;;;;;32.50;53.40;;;;;;5052302;28;19909;-79
2023/06/11 11:30:21;;;;;;;;;;;31.90;54.40;;;;;;5058156;28;19964;-79
2023/06/11 11:32:46;;;;;;;;;;;31.70;55.20;;;;;;5052996;28;20100;-78
2023/06/11 11:35:16;;;;;;;;;;;31.40;52.90;;;;;;5050802;28;19909;-79
2023/06/11 11:37:44;;;;;;;;;;;31.70;53.00;;;;;;5036430;28;20418;-79
2023/06/11 11:40:10;;;;;;;;;;;31.00;51.80;;;;;;5049613;28;19934;-79
2023/06/11 11:42:47;;;;;;;;;;;31.10;53.10;;;;;;5055881;28;20341;-80
2023/06/11 11:45:14;;;;;;;;;;;30.30;53.40;;;;;;5052381;28;19909;-80
2023/06/11 11:47:50;;;;;;;;;;;30.20;54.40;;;;;;5057836;28;19955;-80
2023/06/11 11:50:25;;;;;;;;;;;29.70;55.00;;;;;;5046540;28;19916;-80
2023/06/11 11:53:03;;;;;;;;;;;29.50;55.80;;;;;;5057015;28;20379;-80
2023/06/11 11:55:32;;;;;;;;;;;29.10;58.30;;;;;;5056568;28;19916;-78
2023/06/11 11:58:08;;;;;;;;;;;28.90;59.10;;;;;;5058802;28;19915;-79
2023/06/11 12:00:34;;;;;;;;;;;29.40;59.00;;;;;;5071830;28;19962;-80
2023/06/11 12:03:08;;;;;;;;;;;29.70;59.50;;;;;;5045329;28;19968;-80
2023/06/11 12:05:34;;;;;;;;;;;29.60;57.80;;;;;;5063641;28;19916;-79
2023/06/11 12:07:59;;;;;;;;;;;29.90;58.90;;;;;;5052624;28;20053;-80
2023/06/11 12:10:26;;;;;;;;;;;29.90;55.40;;;;;;5048470;28;19916;-80
2023/06/11 12:12:52;;;;;;;;;;;30.00;56.60;;;;;;5046982;28;20000;-79
2023/06/11 12:15:18;;;;;;;;;;;30.40;56.60;;;;;;5053714;28;19951;-80
2023/06/11 12:17:44;;;;;;;;;;;30.40;58.10;;;;;;5046619;28;19943;-79
2023/06/11 12:20:10;;;;;;;;;;;30.50;58.20;;;;;;5050480;28;19996;-80
2023/06/11 12:22:36;;;;;;;;;;;30.60;58.70;;;;;;5057191;28;19995;-79
2023/06/11 12:25:02;;;;;;;;;;;30.50;57.70;;;;;;5054085;28;19920;-79
2023/06/11 12:27:27;;;;;;;;;;;30.70;55.20;;;;;;5049679;28;19908;-80
2023/06/11 12:29:53;;;;;;;;;;;30.60;54.60;;;;;;5058983;28;20658;-80
2023/06/11 12:32:21;;;;;;;;;;;30.40;52.70;;;;;;5049644;28;19917;-80
2023/06/11 12:34:47;;;;;;;;;;;30.30;52.60;;;;;;5055677;28;19916;-78
2023/06/11 12:37:13;;;;;;;;;;;30.60;57.70;;;;;;5050176;28;20469;-79
2023/06/11 12:39:43;;;;;;;;;;;30.60;55.80;;;;;;5051905;28;19908;-80
2023/06/11 12:42:20;;;;;;;;;;;30.40;55.80;;;;;;5057458;28;19920;-79
2023/06/11 12:44:46;;;;;;;;;;;30.20;55.40;;;;;;5056760;28;19915;-80
2023/06/11 12:47:12;;;;;;;;;;;30.40;56.00;;;;;;5053577;28;19909;-80
2023/06/11 12:49:38;;;;;;;;;;;30.40;56.00;;;;;;5057522;28;19923;-79
2023/06/11 12:52:04;;;;;;;;;;;30.10;54.20;;;;;;5053750;28;20310;-81
2023/06/11 12:54:29;;;;;;;;;;;30.00;54.50;;;;;;5062631;28;19977;-81
2023/06/11 12:56:55;;;;;;;;;;;29.90;55.00;;;;;;5054393;28;19909;-80
2023/06/11 12:59:20;;;;;;;;;;;29.50;54.50;;;;;;5060193;28;19905;-81
2023/06/11 13:01:46;;;;;;;;;;;29.50;56.40;;;;;;5048647;28;19905;-80
2023/06/11 13:04:11;;;;;;;;;;;29.70;56.10;;;;;;5044579;28;20023;-81
2023/06/11 13:06:37;;;;;;;;;;;30.20;55.60;;;;;;5056978;28;19920;-79
2023/06/11 13:09:02;;;;;;;;;;;30.20;56.20;;;;;;5062592;28;19962;-81
2023/06/11 13:11:28;;;;;;;;;;;29.80;57.30;;;;;;5050581;28;19908;-80
2023/06/11 13:13:54;;;;;;;;;;;29.50;56.70;;;;;;5061063;28;20371;-81
2023/06/11 13:16:21;;;;;;;;;;;29.50;58.10;;;;;;5052437;28;20419;-81
2023/06/11 13:18:47;;;;;;;;;;;29.60;57.10;;;;;;5056828;28;19983;-81
2023/06/11 13:21:13;;;;;;;;;;;29.50;57.10;;;;;;5047787;28;20454;-81
2023/06/11 13:23:39;;;;;;;;;;;29.60;58.60;;;;;;5046703;28;19971;-80
2023/06/11 13:26:05;;;;;;;;;;;29.60;58.70;;;;;;5048148;28;20017;-81
2023/06/11 13:28:31;;;;;;;;;;;29.60;57.50;;;;;;5046401;28;20518;-80
2023/06/11 13:30:58;;;;;;;;;;;29.50;58.20;;;;;;5048745;28;19909;-81
2023/06/11 13:33:23;;;;;;;;;;;29.20;59.00;;;;;;5057947;28;20058;-81
2023/06/11 13:35:49;;;;;;;;;;;29.30;58.50;;;;;;5049270;28;20021;-81
2023/06/11 13:38:15;;;;;;;;;;;29.30;58.40;;;;;;5052248;28;19912;-78
2023/06/11 13:40:40;;;;;;;;;;;29.30;57.60;;;;;;5050003;28;19905;-81
2023/06/11 13:43:06;;;;;;;;;;;29.50;57.70;;;;;;5051703;28;19908;-80
2023/06/11 13:45:31;;;;;;;;;;;29.30;56.90;;;;;;5050430;28;19909;-80
2023/06/11 13:48:02;;;;;;;;;;;29.50;54.70;;;;;;5059046;28;19962;-81
2023/06/11 13:50:28;;;;;;;;;;;29.30;55.70;;;;;;5057996;28;19923;-79
2023/06/11 13:52:54;;;;;;;;;;;29.40;54.70;;;;;;5054216;28;19920;-79
2023/06/11 13:55:19;;;;;;;;;;;29.40;56.30;;;;;;5052694;28;19908;-80
2023/06/11 13:57:45;;;;;;;;;;;29.20;57.60;;;;;;5055556;28;20436;-81
2023/06/11 14:00:10;;;;;;;;;;;29.40;57.00;;;;;;5055849;28;19913;-81
2023/06/11 14:02:36;;;;;;;;;;;29.10;58.80;;;;;;5042736;28;20574;-80
2023/06/11 14:05:02;;;;;;;;;;;29.50;59.90;;;;;;5056715;28;19970;-80
2023/06/11 14:07:27;;;;;;;;;;;29.60;58.80;;;;;;5051874;28;19912;-79
2023/06/11 14:09:54;;;;;;;;;;;29.60;58.50;;;;;;5055501;28;19936;-82
2023/06/11 14:12:19;;;;;;;;;;;29.80;59.40;;;;;;5055528;28;19912;-80